Time;durP1;ratioP1;P1;durP2;ratioP2;P2;SDS_P1;SDS_P2;PMS_P1;PMS_P2;Temp;Humidity;BMP_temperature;BMP_pressure;BME280_temperature;BME280_humidity;BME280_pressure;Samples;Min_cycle;Max_cycle;Signal;HPM_P1;HPM_P2
2023/01/31 00:01:19;;;;;;;38.20;3.95;;;3.60;99.90;;;;;;6276733;22;20019;-79
2023/01/31 00:03:47;;;;;;;34.00;4.50;;;3.40;99.90;;;;;;6276485;22;20043;-80
2023/01/31 00:06:18;;;;;;;34.03;4.30;;;3.60;99.90;;;;;;6252918;22;20118;-79
2023/01/31 00:08:46;;;;;;;30.08;4.13;;;3.50;99.90;;;;;;6278717;22;20481;-79
2023/01/31 00:11:12;;;;;;;35.08;3.92;;;3.80;99.90;;;;;;6278496;22;20474;-79
2023/01/31 00:13:38;;;;;;;40.70;4.80;;;3.60;99.90;;;;;;6277174;22;20151;-79
2023/01/31 00:16:04;;;;;;;35.83;3.75;;;3.90;99.90;;;;;;6252982;22;20023;-79
2023/01/31 00:18:30;;;;;;;33.13;3.63;;;3.50;99.90;;;;;;6252400;22;20022;-79
2023/01/31 00:20:56;;;;;;;39.33;4.25;;;3.60;99.90;;;;;;6277962;22;20057;-79
2023/01/31 00:23:21;;;;;;;31.52;4.30;;;3.90;99.90;;;;;;6252140;22;20023;-79
2023/01/31 00:25:47;;;;;;;39.45;4.45;;;3.70;99.90;;;;;;6278938;22;20178;-79
2023/01/31 00:28:13;;;;;;;39.85;4.20;;;3.50;99.90;;;;;;6252700;22;20067;-79
2023/01/31 00:30:38;;;;;;;31.27;3.88;;;3.70;99.90;;;;;;6278790;22;20551;-79
2023/01/31 00:33:04;;;;;;;34.15;3.28;;;3.40;99.90;;;;;;6277113;22;20112;-79
2023/01/31 00:35:30;;;;;;;32.60;3.63;;;3.60;99.90;;;;;;6250701;22;20047;-79
2023/01/31 00:37:55;;;;;;;34.10;4.45;;;3.50;99.90;;;;;;6299684;22;20019;-79
2023/01/31 00:40:21;;;;;;;38.75;4.57;;;3.60;99.90;;;;;;6274325;22;20035;-79
2023/01/31 00:42:46;;;;;;;36.47;4.07;;;3.30;99.90;;;;;;6247310;22;20043;-79
2023/01/31 00:45:12;;;;;;;33.40;3.35;;;3.40;99.90;;;;;;6247969;22;20019;-79
2023/01/31 00:47:38;;;;;;;32.92;3.28;;;3.40;99.90;;;;;;6251403;22;20019;-79
2023/01/31 00:50:04;;;;;;;31.08;3.75;;;3.30;99.90;;;;;;6224618;22;20030;-80
2023/01/31 00:52:30;;;;;;;20.38;3.50;;;3.50;99.90;;;;;;6247879;22;20030;-79
2023/01/31 00:54:56;;;;;;;26.30;4.20;;;3.40;99.90;;;;;;6222277;22;20011;-79
2023/01/31 00:57:22;;;;;;;32.92;3.67;;;3.70;99.90;;;;;;6276795;22;20019;-79
2023/01/31 00:59:47;;;;;;;31.05;4.10;;;3.70;99.90;;;;;;6273532;22;20447;-79
2023/01/31 01:02:13;;;;;;;39.88;3.75;;;3.30;99.90;;;;;;6247649;22;20121;-78
2023/01/31 01:04:39;;;;;;;30.77;3.78;;;3.10;99.90;;;;;;6296023;22;20375;-79
2023/01/31 01:07:05;;;;;;;21.83;3.00;;;3.50;99.90;;;;;;6274075;22;20030;-80
2023/01/31 01:09:31;;;;;;;30.17;3.63;;;2.90;99.90;;;;;;6246350;22;20045;-79
2023/01/31 01:11:56;;;;;;;30.25;3.63;;;2.90;99.90;;;;;;6249147;22;20019;-79
2023/01/31 01:14:22;;;;;;;31.67;4.05;;;2.90;99.90;;;;;;6273579;22;20039;-79
2023/01/31 01:16:48;;;;;;;38.40;4.65;;;3.20;99.90;;;;;;6248986;22;20115;-79
2023/01/31 01:19:16;;;;;;;35.95;4.20;;;3.20;99.90;;;;;;6247245;22;20019;-79
2023/01/31 01:21:43;;;;;;;32.67;4.47;;;2.60;99.90;;;;;;6248980;22;20037;-79
2023/01/31 01:24:15;;;;;;;40.25;3.58;;;2.90;99.90;;;;;;6275042;22;20015;-79
2023/01/31 01:26:41;;;;;;;32.15;3.80;;;2.50;99.90;;;;;;6276652;22;20044;-79
2023/01/31 01:29:06;;;;;;;27.67;3.88;;;2.70;99.90;;;;;;6279198;22;20022;-79
2023/01/31 01:32:09;;;;;;;31.42;3.33;;;3.00;99.90;;;;;;6252829;22;20098;-79
2023/01/31 01:34:36;;;;;;;35.38;3.60;;;3.00;99.90;;;;;;6293149;22;20019;-79
2023/01/31 01:37:08;;;;;;;35.45;3.65;;;2.60;99.90;;;;;;6290071;22;20011;-79
2023/01/31 01:39:34;;;;;;;37.13;4.22;;;2.70;99.90;;;;;;6248680;22;20399;-79
2023/01/31 01:42:00;;;;;;;30.52;3.88;;;2.70;99.90;;;;;;6251321;22;20090;-79
2023/01/31 01:45:19;;;;;;;29.02;3.35;;;3.10;99.90;;;;;;6276870;22;20050;-80
2023/01/31 01:47:51;;;;;;;34.72;3.55;;;3.00;99.90;;;;;;6275834;22;20335;-79
2023/01/31 01:50:38;;;;;;;31.10;3.38;;;3.40;99.90;;;;;;6248576;22;20094;-80
2023/01/31 01:53:12;;;;;;;28.10;3.30;;;3.10;99.90;;;;;;6249677;22;20022;-79
2023/01/31 01:55:45;;;;;;;30.57;4.17;;;3.30;99.90;;;;;;6250318;22;20042;-79
2023/01/31 01:58:25;;;;;;;25.63;3.15;;;3.00;99.90;;;;;;6276365;22;20703;-79
2023/01/31 02:00:53;;;;;;;31.65;3.95;;;3.40;99.90;;;;;;6246652;22;20015;-80
2023/01/31 02:03:18;;;;;;;30.38;3.15;;;3.20;99.90;;;;;;6220190;22;20024;-79
2023/01/31 02:05:47;;;;;;;31.48;3.75;;;3.10;99.90;;;;;;6220248;22;20015;-79
2023/01/31 02:08:16;;;;;;;31.60;3.65;;;3.50;99.90;;;;;;6221720;22;20020;-80
2023/01/31 02:11:03;;;;;;;25.15;2.60;;;3.50;99.90;;;;;;6218550;22;20105;-79
2023/01/31 02:13:29;;;;;;;25.40;2.75;;;3.30;99.90;;;;;;6217711;22;20412;-80
2023/01/31 02:15:56;;;;;;;28.63;2.83;;;3.60;99.90;;;;;;6244423;22;20012;-80
2023/01/31 02:18:25;;;;;;;22.30;3.33;;;3.60;99.90;;;;;;6243832;22;20095;-80
2023/01/31 02:21:28;;;;;;;34.88;3.50;;;3.20;99.90;;;;;;6243584;22;20101;-80
2023/01/31 02:24:05;;;;;;;33.80;3.55;;;3.50;99.90;;;;;;6218197;22;20011;-79
2023/01/31 02:26:50;;;;;;;34.05;3.80;;;3.30;99.90;;;;;;6222574;22;20012;-79
2023/01/31 02:29:57;;;;;;;23.02;3.00;;;3.60;99.90;;;;;;6242572;22;20482;-79
2023/01/31 02:32:59;;;;;;;31.83;3.45;;;3.30;99.90;;;;;;6218626;22;20011;-79
2023/01/31 02:35:31;;;;;;;40.22;3.70;;;3.50;99.90;;;;;;6240645;22;20023;-79
2023/01/31 02:38:04;;;;;;;37.17;2.90;;;3.50;99.90;;;;;;6243674;22;20039;-79
2023/01/31 02:40:53;;;;;;;27.55;3.72;;;4.00;99.90;;;;;;6217391;22;20086;-79
2023/01/31 02:43:31;;;;;;;29.45;4.70;;;3.90;99.90;;;;;;6219085;22;20091;-79
2023/01/31 02:46:00;;;;;;;28.40;3.95;;;3.80;99.90;;;;;;6217073;22;20323;-79
2023/01/31 02:49:03;;;;;;;39.03;3.65;;;3.50;99.90;;;;;;6241813;22;20085;-79
2023/01/31 02:51:35;;;;;;;27.90;3.50;;;3.50;99.90;;;;;;6241923;22;20059;-79
2023/01/31 02:54:08;;;;;;;26.80;3.28;;;3.70;99.90;;;;;;6191846;22;20008;-79
2023/01/31 02:56:37;;;;;;;28.10;3.20;;;3.40;99.90;;;;;;6244037;22;20012;-80
2023/01/31 02:59:24;;;;;;;32.30;3.10;;;3.70;99.90;;;;;;6243605;22;20016;-79
2023/01/31 03:02:01;;;;;;;38.17;3.60;;;3.60;99.90;;;;;;6218492;22;20038;-79
2023/01/31 03:04:35;;;;;;;32.17;3.35;;;3.60;99.90;;;;;;6217806;22;20023;-79
2023/01/31 03:07:14;;;;;;;22.77;2.83;;;3.80;99.90;;;;;;6243561;22;20008;-79
2023/01/31 03:10:00;;;;;;;22.77;2.67;;;3.30;99.90;;;;;;6242032;22;20447;-79
2023/01/31 03:12:46;;;;;;;33.05;3.70;;;3.70;99.90;;;;;;6244221;22;20015;-79
2023/01/31 03:15:24;;;;;;;19.55;3.08;;;3.30;99.90;;;;;;6217946;22;20034;-79
2023/01/31 03:17:53;;;;;;;21.77;3.00;;;3.50;99.90;;;;;;6242847;22;20100;-79
2023/01/31 03:20:37;;;;;;;28.95;3.42;;;3.70;99.90;;;;;;6242579;22;20447;-80
2023/01/31 03:23:28;;;;;;;42.05;3.50;;;3.90;99.90;;;;;;6217745;22;20073;-79
2023/01/31 03:25:55;;;;;;;27.58;3.58;;;3.60;99.90;;;;;;6218702;22;20043;-80
2023/01/31 03:28:27;;;;;;;26.73;3.95;;;3.60;99.90;;;;;;6243209;22;20538;-79
2023/01/31 03:31:01;;;;;;;28.25;2.97;;;3.80;99.90;;;;;;6243481;22;20061;-79
2023/01/31 03:33:34;;;;;;;31.70;3.47;;;4.00;99.90;;;;;;6243786;22;20157;-79
2023/01/31 03:36:35;;;;;;;30.02;3.03;;;3.60;99.90;;;;;;6218235;22;20011;-79
2023/01/31 03:39:04;;;;;;;28.35;3.20;;;3.60;99.90;;;;;;6266711;22;20012;-80
2023/01/31 03:41:39;;;;;;;28.95;3.13;;;3.60;99.90;;;;;;6215486;22;20102;-79
2023/01/31 03:44:25;;;;;;;33.75;3.53;;;4.10;99.90;;;;;;6243591;22;20082;-80
2023/01/31 03:46:58;;;;;;;33.58;3.30;;;4.00;99.90;;;;;;6217241;22;20016;-79
2023/01/31 03:49:26;;;;;;;33.40;3.55;;;4.30;99.90;;;;;;6216153;22;20553;-80
2023/01/31 03:51:57;;;;;;;26.98;3.85;;;4.30;99.90;;;;;;6243786;22;20038;-79
2023/01/31 03:54:29;;;;;;;19.13;3.20;;;4.30;99.90;;;;;;6216804;22;20016;-80
2023/01/31 03:57:00;;;;;;;30.75;4.00;;;4.40;99.90;;;;;;6244387;22;20015;-80
2023/01/31 03:59:31;;;;;;;27.40;3.30;;;4.40;99.90;;;;;;6244893;22;20075;-79
2023/01/31 04:02:00;;;;;;;26.20;4.28;;;4.50;99.90;;;;;;6232436;22;20012;-79
2023/01/31 04:04:40;;;;;;;33.20;4.25;;;4.20;99.90;;;;;;6244255;22;20039;-80
2023/01/31 04:07:06;;;;;;;26.65;4.53;;;4.10;99.90;;;;;;6271851;22;20102;-80
2023/01/31 04:09:32;;;;;;;29.70;4.03;;;4.30;99.90;;;;;;6270278;22;20470;-80
2023/01/31 04:12:01;;;;;;;36.90;4.03;;;4.50;99.90;;;;;;6271333;22;20019;-80
2023/01/31 04:14:27;;;;;;;33.25;4.60;;;4.20;99.90;;;;;;6270948;22;20110;-80
2023/01/31 04:16:53;;;;;;;29.50;4.22;;;4.50;99.90;;;;;;6269947;22;20054;-79
2023/01/31 04:19:19;;;;;;;33.40;4.45;;;4.90;99.90;;;;;;6245364;22;20428;-80
2023/01/31 04:21:44;;;;;;;39.95;4.57;;;4.50;99.90;;;;;;6271336;22;20019;-80
2023/01/31 04:24:10;;;;;;;26.52;4.35;;;4.30;99.90;;;;;;6270374;22;20035;-80
2023/01/31 04:26:36;;;;;;;31.75;3.88;;;4.80;99.90;;;;;;6271217;22;20016;-80
2023/01/31 04:29:03;;;;;;;32.00;4.93;;;4.30;99.90;;;;;;6270044;22;20015;-80
2023/01/31 04:31:29;;;;;;;39.00;4.10;;;4.70;99.90;;;;;;6243291;22;20026;-79
2023/01/31 04:33:56;;;;;;;45.50;5.20;;;4.50;99.90;;;;;;6242807;22;20012;-80
2023/01/31 04:36:24;;;;;;;39.42;4.72;;;4.60;99.90;;;;;;6271315;22;20020;-80
2023/01/31 04:38:50;;;;;;;40.78;4.75;;;4.60;99.90;;;;;;6269027;22;20335;-79
2023/01/31 04:41:15;;;;;;;47.15;5.88;;;5.30;99.90;;;;;;6269350;22;20018;-80
2023/01/31 04:43:41;;;;;;;37.63;5.25;;;5.20;99.90;;;;;;6268701;22;20091;-80
2023/01/31 04:46:06;;;;;;;40.13;5.35;;;5.20;99.90;;;;;;6245630;22;20012;-81
2023/01/31 04:48:32;;;;;;;39.63;4.82;;;4.70;99.90;;;;;;6246182;22;20019;-80
2023/01/31 04:50:58;;;;;;;35.53;5.25;;;5.30;99.90;;;;;;6270273;22;20277;-80
2023/01/31 04:53:24;;;;;;;38.47;4.75;;;4.80;99.90;;;;;;6244980;22;20015;-80
2023/01/31 04:55:53;;;;;;;40.53;5.75;;;5.40;99.90;;;;;;6272493;22;20023;-80
2023/01/31 04:58:19;;;;;;;42.30;5.70;;;4.80;99.90;;;;;;6247447;22;20019;-80
2023/01/31 05:00:45;;;;;;;40.55;4.95;;;5.40;99.90;;;;;;6272898;22;20415;-80
2023/01/31 05:03:11;;;;;;;41.10;5.60;;;5.50;99.90;;;;;;6221805;22;20034;-80
2023/01/31 05:05:38;;;;;;;48.50;5.35;;;5.50;99.90;;;;;;6244429;22;20419;-80
2023/01/31 05:08:04;;;;;;;45.13;5.18;;;5.50;99.90;;;;;;6220653;22;20457;-80
2023/01/31 05:10:30;;;;;;;48.55;5.90;;;5.50;99.90;;;;;;6245593;22;20012;-80
2023/01/31 05:12:56;;;;;;;37.97;5.18;;;5.30;99.90;;;;;;6222989;22;20073;-80
2023/01/31 05:16:15;;;;;;;33.20;5.30;;;5.00;99.90;;;;;;6226098;22;20067;-80
2023/01/31 05:18:40;;;;;;;47.33;5.80;;;5.50;99.90;;;;;;6270245;22;20031;-80
2023/01/31 05:21:07;;;;;;;39.38;5.63;;;4.90;99.90;;;;;;6225070;22;20320;-80
2023/01/31 05:23:33;;;;;;;37.50;5.32;;;5.40;99.90;;;;;;6225073;22;20087;-80
2023/01/31 05:25:59;;;;;;;43.13;6.05;;;5.50;99.90;;;;;;6250318;22;20016;-80
2023/01/31 05:28:25;;;;;;;36.22;5.63;;;5.00;99.90;;;;;;6246891;22;20019;-80
2023/01/31 05:30:52;;;;;;;40.67;5.60;;;5.20;99.90;;;;;;6220614;22;20010;-80
2023/01/31 05:33:20;;;;;;;42.95;5.72;;;5.30;99.90;;;;;;6220055;22;20444;-80
2023/01/31 05:35:47;;;;;;;44.13;6.07;;;5.10;99.90;;;;;;6219611;22;20008;-80
2023/01/31 05:38:13;;;;;;;37.17;5.13;;;5.20;99.90;;;;;;6220155;22;20150;-80
2023/01/31 05:40:38;;;;;;;37.67;5.65;;;5.50;99.90;;;;;;6245458;22;20039;-80
2023/01/31 05:43:04;;;;;;;42.80;5.38;;;5.50;99.90;;;;;;6250136;22;20011;-80
2023/01/31 05:45:30;;;;;;;43.70;5.57;;;5.10;99.90;;;;;;6245784;22;20012;-79
2023/01/31 05:47:57;;;;;;;43.92;5.97;;;5.60;99.90;;;;;;6219584;22;20087;-80
2023/01/31 05:50:23;;;;;;;35.40;4.80;;;5.10;99.90;;;;;;6218739;22;20783;-80
2023/01/31 05:52:51;;;;;;;49.95;5.30;;;5.00;99.90;;;;;;6220936;22;20023;-78
2023/01/31 05:55:18;;;;;;;41.50;5.53;;;5.30;99.90;;;;;;6253652;22;20012;-80
2023/01/31 05:57:43;;;;;;;50.75;5.82;;;5.30;99.90;;;;;;6219636;22;20023;-80
2023/01/31 06:00:10;;;;;;;40.30;5.68;;;5.20;99.90;;;;;;6227205;22;20019;-79
2023/01/31 06:02:36;;;;;;;37.90;5.57;;;5.00;99.90;;;;;;6238232;22;20020;-80
2023/01/31 06:05:01;;;;;;;40.53;5.38;;;5.60;99.90;;;;;;6269264;22;20015;-80
2023/01/31 06:07:27;;;;;;;42.80;6.45;;;5.50;99.90;;;;;;6269779;22;20087;-80
2023/01/31 06:09:53;;;;;;;44.53;5.72;;;5.10;99.90;;;;;;6244722;22;20023;-80
2023/01/31 06:12:18;;;;;;;39.25;5.45;;;5.10;99.90;;;;;;6269125;22;20106;-80
2023/01/31 06:14:45;;;;;;;45.17;5.75;;;5.60;99.90;;;;;;6243993;22;20016;-80
2023/01/31 06:17:11;;;;;;;38.38;5.75;;;5.20;99.90;;;;;;6270148;22;20017;-79
2023/01/31 06:19:37;;;;;;;48.55;6.10;;;5.60;99.90;;;;;;6245563;22;20018;-80
2023/01/31 06:22:14;;;;;;;41.72;5.65;;;5.10;99.90;;;;;;6243479;22;20012;-81
2023/01/31 06:24:40;;;;;;;35.00;5.65;;;5.30;99.90;;;;;;6243615;22;20043;-81
2023/01/31 06:27:06;;;;;;;43.00;5.65;;;5.10;99.90;;;;;;6271336;22;20026;-79
2023/01/31 06:29:31;;;;;;;38.88;5.75;;;5.40;99.90;;;;;;6279043;22;20854;-79
2023/01/31 06:31:57;;;;;;;38.30;5.50;;;5.60;99.90;;;;;;6295010;22;20015;-80
2023/01/31 06:34:24;;;;;;;35.63;5.22;;;5.20;99.90;;;;;;6267721;22;20122;-79
2023/01/31 06:36:49;;;;;;;36.70;5.68;;;5.30;99.90;;;;;;6267397;22;20015;-80
2023/01/31 06:39:15;;;;;;;34.22;5.75;;;5.50;99.90;;;;;;6294422;22;20022;-80
2023/01/31 06:41:41;;;;;;;38.22;5.88;;;5.70;99.90;;;;;;6269269;22;20058;-80
2023/01/31 06:44:07;;;;;;;50.78;5.72;;;5.50;99.90;;;;;;6243478;22;20020;-80
2023/01/31 06:46:33;;;;;;;36.95;5.32;;;5.50;99.90;;;;;;6217448;22;20328;-80
2023/01/31 06:48:58;;;;;;;40.58;6.50;;;5.70;99.90;;;;;;6270275;22;20317;-80
2023/01/31 06:51:24;;;;;;;38.80;5.60;;;5.60;99.90;;;;;;6270177;22;20026;-80
2023/01/31 06:53:52;;;;;;;41.15;6.03;;;5.60;99.90;;;;;;6269757;22;20016;-80
2023/01/31 06:56:18;;;;;;;35.63;5.53;;;5.70;99.90;;;;;;6244536;22;20016;-81
2023/01/31 06:58:44;;;;;;;40.78;5.25;;;5.60;99.90;;;;;;6268821;22;20031;-80
2023/01/31 07:01:14;;;;;;;42.70;5.22;;;5.10;99.90;;;;;;6243124;22;20119;-80
2023/01/31 07:03:41;;;;;;;35.25;5.00;;;5.30;99.90;;;;;;6270667;22;20061;-80
2023/01/31 07:06:07;;;;;;;39.90;5.43;;;5.20;99.90;;;;;;6269686;22;20377;-79
2023/01/31 07:08:33;;;;;;;38.67;5.05;;;5.70;99.90;;;;;;6267851;22;20086;-79
2023/01/31 07:11:02;;;;;;;31.50;4.63;;;5.20;99.90;;;;;;6269197;22;20022;-79
2023/01/31 07:13:28;;;;;;;34.80;5.25;;;5.50;99.90;;;;;;6268011;22;20007;-80
2023/01/31 07:15:57;;;;;;;46.20;5.00;;;5.60;99.90;;;;;;6244651;22;20057;-80
2023/01/31 07:18:23;;;;;;;38.30;5.13;;;5.70;99.90;;;;;;6242583;22;20022;-81
2023/01/31 07:20:49;;;;;;;35.67;4.85;;;5.30;99.90;;;;;;6270643;22;20347;-80
2023/01/31 07:23:15;;;;;;;44.28;4.80;;;5.80;99.90;;;;;;6289501;22;20015;-80
2023/01/31 07:25:40;;;;;;;37.63;4.57;;;5.60;99.90;;;;;;6244121;22;20102;-80
2023/01/31 07:28:06;;;;;;;38.25;4.78;;;5.60;99.90;;;;;;6242860;22;20111;-80
2023/01/31 07:30:32;;;;;;;33.72;5.05;;;5.70;99.90;;;;;;6242158;22;20440;-80
2023/01/31 07:32:59;;;;;;;34.13;4.65;;;5.80;99.90;;;;;;6240792;22;20104;-79
2023/01/31 07:35:25;;;;;;;35.85;5.70;;;5.80;99.90;;;;;;6242430;22;20047;-79
2023/01/31 07:37:51;;;;;;;36.90;5.88;;;5.40;99.90;;;;;;6266493;22;20388;-80
2023/01/31 07:40:17;;;;;;;29.42;4.60;;;5.90;99.90;;;;;;6268785;22;20023;-80
2023/01/31 07:42:43;;;;;;;31.95;4.88;;;5.90;99.90;;;;;;6242577;22;20016;-80
2023/01/31 07:45:14;;;;;;;29.75;4.22;;;5.40;99.90;;;;;;6245497;22;20506;-79
2023/01/31 07:47:41;;;;;;;36.55;4.55;;;5.60;99.90;;;;;;6269069;22;20007;-79
2023/01/31 07:50:08;;;;;;;33.67;4.47;;;5.90;99.90;;;;;;6245803;22;20380;-80
2023/01/31 07:52:33;;;;;;;30.95;4.25;;;5.90;99.90;;;;;;6267989;22;20026;-80
2023/01/31 07:54:59;;;;;;;29.98;4.43;;;6.00;99.90;;;;;;6265846;22;20020;-80
2023/01/31 07:57:25;;;;;;;32.22;3.92;;;5.70;99.90;;;;;;6243429;22;20007;-78
2023/01/31 07:59:50;;;;;;;28.70;4.38;;;5.60;99.90;;;;;;6243487;22;20107;-78
2023/01/31 08:05:02;;;;;;;29.48;3.88;;;6.10;99.90;;;;;;6269346;22;20023;-78
2023/01/31 08:07:28;;;;;;;27.25;3.22;;;6.10;99.90;;;;;;6242339;22;20161;-78
2023/01/31 08:09:54;;;;;;;23.10;3.30;;;6.10;99.90;;;;;;6218815;22;20094;-77
2023/01/31 08:12:20;;;;;;;23.75;3.63;;;6.10;99.90;;;;;;6245617;22;20073;-77
2023/01/31 08:14:45;;;;;;;23.20;3.67;;;6.10;99.90;;;;;;6218064;22;20157;-78
2023/01/31 08:17:11;;;;;;;29.60;3.20;;;5.90;99.90;;;;;;6242813;22;20016;-78
2023/01/31 08:19:37;;;;;;;29.63;3.78;;;6.00;99.90;;;;;;6216980;22;20019;-77
2023/01/31 08:22:03;;;;;;;21.38;2.83;;;6.20;99.90;;;;;;6220897;22;20093;-78
2023/01/31 08:24:30;;;;;;;29.02;4.10;;;6.20;99.90;;;;;;6220595;22;20538;-77
2023/01/31 08:26:56;;;;;;;25.10;3.88;;;6.20;99.90;;;;;;6221478;22;20011;-78
2023/01/31 08:29:23;;;;;;;33.65;3.88;;;6.20;99.90;;;;;;6220826;22;20023;-78
2023/01/31 08:31:49;;;;;;;16.17;2.92;;;5.80;99.90;;;;;;6246547;22;20359;-78
2023/01/31 08:34:15;;;;;;;33.85;3.67;;;6.30;99.90;;;;;;6219147;22;20514;-78
2023/01/31 08:36:42;;;;;;;29.35;4.20;;;5.90;99.90;;;;;;6271243;22;20051;-78
2023/01/31 08:39:08;;;;;;;21.73;3.38;;;6.30;99.90;;;;;;6247550;22;20008;-77
2023/01/31 08:41:35;;;;;;;26.92;3.83;;;6.40;99.90;;;;;;6219290;22;20007;-78
2023/01/31 08:44:02;;;;;;;26.05;4.05;;;6.20;99.90;;;;;;6217144;22;20769;-78
2023/01/31 08:46:31;;;;;;;30.25;4.07;;;6.00;99.90;;;;;;6216980;22;20023;-79
2023/01/31 08:48:58;;;;;;;22.88;4.40;;;6.00;99.90;;;;;;6244523;22;20099;-78
2023/01/31 08:51:24;;;;;;;22.42;3.55;;;5.90;99.90;;;;;;6242786;22;20015;-78
2023/01/31 08:53:50;;;;;;;29.30;4.20;;;6.40;99.90;;;;;;6222415;22;20068;-79
2023/01/31 08:56:16;;;;;;;31.63;4.07;;;6.20;99.90;;;;;;6223319;22;20016;-78
2023/01/31 08:58:43;;;;;;;30.75;3.58;;;6.10;99.90;;;;;;6250264;22;20023;-78
2023/01/31 09:01:10;;;;;;;34.05;4.35;;;6.20;99.90;;;;;;6266730;22;20050;-79
2023/01/31 09:03:36;;;;;;;33.35;4.35;;;6.10;99.90;;;;;;6297748;22;20067;-81
2023/01/31 09:06:05;;;;;;;33.83;4.75;;;6.10;99.90;;;;;;6265852;22;20394;-78
2023/01/31 09:08:32;;;;;;;26.30;3.95;;;6.40;99.90;;;;;;6277259;22;20063;-79
2023/01/31 09:11:01;;;;;;;28.85;4.50;;;6.40;99.90;;;;;;6247861;22;20439;-78
2023/01/31 09:13:28;;;;;;;30.08;4.00;;;6.10;99.90;;;;;;6272400;22;20038;-81
2023/01/31 09:16:08;;;;;;;24.02;3.85;;;6.30;99.90;;;;;;6247497;22;20019;-80
2023/01/31 09:18:35;;;;;;;40.97;5.32;;;6.30;99.90;;;;;;6245443;22;20074;-79
2023/01/31 09:21:15;;;;;;;27.50;3.30;;;6.60;99.90;;;;;;6279098;22;20383;-80
2023/01/31 09:23:41;;;;;;;34.88;3.55;;;6.20;99.90;;;;;;6222235;22;20008;-80
2023/01/31 09:26:07;;;;;;;29.55;3.90;;;6.50;99.90;;;;;;6273021;22;20015;-80
2023/01/31 09:28:33;;;;;;;31.10;4.20;;;6.60;99.90;;;;;;6273353;22;20012;-81
2023/01/31 09:31:11;;;;;;;24.30;3.75;;;6.20;99.90;;;;;;6297950;22;20085;-80
2023/01/31 09:33:37;;;;;;;27.63;3.70;;;6.30;99.90;;;;;;6272890;22;20473;-81
2023/01/31 09:36:07;;;;;;;25.92;3.80;;;6.30;99.90;;;;;;6270983;22;20023;-80
2023/01/31 09:38:33;;;;;;;23.02;4.00;;;6.30;99.90;;;;;;6279181;22;20118;-80
2023/01/31 09:41:02;;;;;;;28.55;4.45;;;6.70;99.90;;;;;;6246577;22;20011;-80
2023/01/31 09:43:33;;;;;;;32.33;4.35;;;6.80;99.90;;;;;;6245845;22;20416;-80
2023/01/31 09:46:03;;;;;;;24.77;3.42;;;6.50;99.90;;;;;;6246169;22;20045;-81
2023/01/31 09:48:34;;;;;;;29.50;4.10;;;6.40;99.90;;;;;;6246865;22;20016;-81
2023/01/31 09:51:01;;;;;;;30.35;3.75;;;6.30;99.90;;;;;;6270435;22;20321;-81
2023/01/31 09:53:32;;;;;;;42.35;4.38;;;6.50;99.90;;;;;;6245956;22;20088;-80
2023/01/31 09:56:00;;;;;;;30.38;3.95;;;6.20;99.90;;;;;;6246935;22;20007;-79
2023/01/31 09:58:49;;;;;;;29.00;3.78;;;6.60;99.90;;;;;;6246330;22;20125;-80
2023/01/31 10:01:47;;;;;;;36.63;4.78;;;6.80;99.90;;;;;;6274774;22;20786;-80
2023/01/31 10:04:22;;;;;;;39.65;4.43;;;6.60;99.90;;;;;;6246267;22;20016;-81
2023/01/31 10:07:17;;;;;;;24.20;4.03;;;6.70;99.90;;;;;;6244781;22;20080;-79
2023/01/31 10:10:15;;;;;;;38.85;5.13;;;6.80;99.90;;;;;;6246786;22;20589;-80
2023/01/31 10:12:53;;;;;;;28.98;4.53;;;6.90;99.90;;;;;;6122830;23;20048;-80
2023/01/31 10:15:49;;;;;;;25.63;3.42;;;6.90;99.90;;;;;;6125330;23;20048;-80
2023/01/31 10:18:23;;;;;;;29.63;4.20;;;6.90;99.90;;;;;;6125445;23;20450;-79
2023/01/31 10:21:05;;;;;;;29.77;4.15;;;6.50;99.90;;;;;;6122856;23;20013;-79
2023/01/31 10:23:39;;;;;;;25.75;3.60;;;6.50;99.90;;;;;;6150046;23;20076;-79
2023/01/31 10:26:29;;;;;;;32.57;4.73;;;6.70;99.90;;;;;;6123619;23;20076;-78
2023/01/31 10:29:04;;;;;;;29.27;4.07;;;6.90;99.90;;;;;;6063499;23;20018;-79
2023/01/31 10:31:48;;;;;;;;;;;6.50;99.90;;;;;;6038165;23;20138;-79
2023/01/31 10:34:37;;;;;;;29.63;4.15;;;7.10;99.90;;;;;;6061226;23;20040;-79
2023/01/31 10:37:28;;;;;;;36.47;4.15;;;7.10;99.90;;;;;;6038066;23;20099;-79
2023/01/31 10:40:26;;;;;;;32.80;3.88;;;7.10;99.90;;;;;;6037313;23;20023;-79
2023/01/31 10:43:22;;;;;;;26.05;4.28;;;7.10;99.90;;;;;;6061345;23;20103;-78
2023/01/31 10:45:48;;;;;;;22.50;3.80;;;7.00;99.90;;;;;;6035425;23;20015;-79
2023/01/31 10:48:25;;;;;;;33.58;4.07;;;7.10;99.90;;;;;;6036965;23;20407;-77
2023/01/31 10:51:12;;;;;;;28.80;4.07;;;6.80;99.90;;;;;;6183650;23;20032;-78
2023/01/31 10:54:05;;;;;;;30.80;3.55;;;6.90;99.90;;;;;;6160178;23;20342;-79
2023/01/31 10:56:37;;;;;;;38.17;4.72;;;7.20;99.90;;;;;;6157727;23;20013;-80
2023/01/31 10:59:16;;;;;;;32.53;4.15;;;7.10;99.90;;;;;;6182872;23;20471;-78
2023/01/31 11:01:41;;;;;;;18.52;3.75;;;7.20;99.90;;;;;;6141475;23;20017;-78
2023/01/31 11:04:21;;;;;;;26.70;3.53;;;7.20;99.90;;;;;;6128706;23;20408;-79
2023/01/31 11:06:46;;;;;;;39.88;4.70;;;6.70;99.90;;;;;;6206098;22;20086;-78
2023/01/31 11:09:13;;;;;;;40.25;4.50;;;7.00;99.90;;;;;;6245793;22;20109;-78
2023/01/31 11:12:03;;;;;;;32.67;4.80;;;6.70;99.90;;;;;;6220927;22;20015;-79
2023/01/31 11:14:30;;;;;;;34.83;4.85;;;6.80;99.90;;;;;;6246174;22;20431;-79
2023/01/31 11:17:06;;;;;;;30.38;3.35;;;7.20;99.90;;;;;;6216729;22;20047;-79
2023/01/31 11:19:46;;;;;;;29.75;4.05;;;6.90;99.90;;;;;;6241819;22;20023;-79
2023/01/31 11:22:31;;;;;;;29.10;3.95;;;7.10;99.90;;;;;;6217145;22;20454;-80
2023/01/31 11:24:59;;;;;;;39.08;4.60;;;7.30;99.90;;;;;;6241655;22;20749;-79
2023/01/31 11:27:37;;;;;;;28.77;3.83;;;7.00;99.90;;;;;;6241470;22;20106;-79
2023/01/31 11:30:05;;;;;;;30.90;4.07;;;7.10;99.90;;;;;;6241284;22;20038;-80
2023/01/31 11:32:36;;;;;;;36.08;4.85;;;7.30;99.90;;;;;;6217414;22;20101;-79
2023/01/31 11:35:06;;;;;;;32.22;3.92;;;7.40;99.90;;;;;;6215957;22;20759;-80
2023/01/31 11:37:33;;;;;;;28.98;4.25;;;7.00;99.90;;;;;;6244257;22;20585;-80
2023/01/31 11:40:02;;;;;;;36.35;4.47;;;7.50;99.90;;;;;;6245654;22;20361;-80
2023/01/31 11:42:28;;;;;;;40.95;4.45;;;6.90;99.90;;;;;;6243946;22;20068;-80
2023/01/31 11:44:58;;;;;;;36.67;5.10;;;7.40;99.90;;;;;;6273425;22;20103;-80
2023/01/31 11:47:38;;;;;;;33.05;4.10;;;6.90;99.90;;;;;;6246395;22;20011;-81
2023/01/31 11:50:04;;;;;;;36.13;5.07;;;7.40;99.90;;;;;;6222402;22;20107;-80
2023/01/31 11:52:33;;;;;;;37.28;4.82;;;7.00;99.90;;;;;;6247150;22;20012;-78
2023/01/31 11:55:06;;;;;;;31.33;5.47;;;7.20;99.90;;;;;;6247586;22;20050;-79
2023/01/31 11:57:38;;;;;;;29.40;4.15;;;7.00;99.90;;;;;;6219479;22;20015;-79
2023/01/31 12:00:18;;;;;;;31.15;4.68;;;7.30;99.90;;;;;;6246573;22;20023;-78
2023/01/31 12:02:51;;;;;;;32.75;4.25;;;7.20;99.90;;;;;;6241307;22;20018;-79
2023/01/31 12:05:18;;;;;;;41.17;5.60;;;7.40;99.90;;;;;;6220225;22;20012;-79
2023/01/31 12:07:49;;;;;;;34.95;4.53;;;7.50;99.90;;;;;;6220778;22;20344;-78
2023/01/31 12:10:33;;;;;;;21.60;3.58;;;7.70;99.90;;;;;;6247539;22;20016;-78
2023/01/31 12:13:10;;;;;;;29.10;4.35;;;7.40;99.90;;;;;;6218874;22;20062;-79
2023/01/31 12:15:35;;;;;;;31.48;4.15;;;7.80;99.90;;;;;;6195064;22;20031;-78
2023/01/31 12:18:01;;;;;;;35.58;4.32;;;7.50;99.90;;;;;;6244804;22;20015;-77
2023/01/31 12:20:50;;;;;;;27.10;4.32;;;7.60;99.90;;;;;;6245833;22;20026;-79
2023/01/31 12:23:37;;;;;;;32.17;4.68;;;7.80;99.90;;;;;;6247983;22;20012;-78
2023/01/31 12:26:30;;;;;;;33.08;4.03;;;7.70;99.90;;;;;;6247043;22;20089;-78
2023/01/31 12:29:18;;;;;;;29.85;4.25;;;7.80;99.90;;;;;;6222703;22;20022;-79
2023/01/31 12:32:02;;;;;;;25.25;4.15;;;8.10;99.90;;;;;;6219226;22;20015;-79
2023/01/31 12:34:41;;;;;;;24.65;3.72;;;8.00;99.90;;;;;;6248111;22;20015;-78
2023/01/31 12:37:20;;;;;;;28.08;4.07;;;8.20;99.90;;;;;;6222017;22;20058;-79
2023/01/31 12:40:09;;;;;;;24.65;3.60;;;8.10;99.90;;;;;;6219018;22;20069;-79
2023/01/31 12:42:45;;;;;;;23.05;3.95;;;8.20;99.90;;;;;;6221730;22;20705;-79
2023/01/31 12:45:31;;;;;;;27.00;3.33;;;8.10;99.90;;;;;;6274390;22;20011;-80
2023/01/31 12:48:20;;;;;;;22.98;3.95;;;8.10;99.90;;;;;;6224047;22;20011;-80
2023/01/31 12:51:14;;;;;;;56.03;7.65;;;8.30;99.90;;;;;;6229026;22;20423;-77
2023/01/31 12:54:26;;;;;;;20.98;3.42;;;8.40;99.90;;;;;;6260739;22;20016;-77
2023/01/31 12:56:59;;;;;;;32.70;4.25;;;8.00;99.90;;;;;;6074513;23;20030;-76
2023/01/31 12:59:59;;;;;;;28.55;4.13;;;8.00;99.90;;;;;;6098374;23;20038;-77
2023/01/31 13:02:28;;;;;;;26.85;3.80;;;8.10;99.90;;;;;;6121498;23;20068;-81
2023/01/31 13:05:08;;;;;;;19.52;4.07;;;8.10;99.90;;;;;;6124821;23;20014;-77
2023/01/31 13:07:42;;;;;;;29.00;3.97;;;8.30;99.90;;;;;;6124808;23;20013;-80
2023/01/31 13:10:35;;;;;;;24.00;3.10;;;8.20;99.90;;;;;;6124230;23;20489;-78
2023/01/31 13:13:03;;;;;;;24.92;3.30;;;8.70;99.90;;;;;;6135942;23;20322;-81
2023/01/31 13:15:39;;;;;;;22.33;3.72;;;8.20;99.90;;;;;;6122889;23;20060;-79